Time;durP1;ratioP1;P1;durP2;ratioP2;P2;SDS_P1;SDS_P2;PMS_P1;PMS_P2;Temp;Humidity;BMP_temperature;BMP_pressure;BME280_temperature;BME280_humidity;BME280_pressure;Samples;Min_cycle;Max_cycle;Signal;HPM_P1;HPM_P2
2021/10/05 00:00:04;;;;;;;9.03;8.23;;;16.60;99.90;;;;;;6237021;28;20490;-68
2021/10/05 00:03:07;;;;;;;8.57;7.77;;;16.70;99.90;;;;;;6249708;28;20903;-69
2021/10/05 00:06:11;;;;;;;11.53;9.10;;;16.60;99.90;;;;;;6249520;28;20859;-69
2021/10/05 00:09:14;;;;;;;12.27;9.10;;;16.60;99.90;;;;;;6252089;28;20471;-69
2021/10/05 00:12:17;;;;;;;13.50;8.83;;;16.60;99.90;;;;;;6255180;28;20490;-69
2021/10/05 00:15:22;;;;;;;10.03;9.13;;;16.60;99.90;;;;;;6254759;28;20560;-69
2021/10/05 00:18:25;;;;;;;10.97;9.07;;;16.50;99.90;;;;;;6254397;28;20490;-69
2021/10/05 00:21:28;;;;;;;11.80;9.17;;;16.50;99.90;;;;;;6254334;28;20489;-69
2021/10/05 00:24:32;;;;;;;10.40;9.40;;;16.50;99.90;;;;;;6254202;28;20466;-69
2021/10/05 00:27:35;;;;;;;9.73;8.67;;;16.50;99.90;;;;;;6254846;28;20473;-70
2021/10/05 00:30:39;;;;;;;10.50;9.50;;;16.50;99.90;;;;;;6253635;28;20478;-68
2021/10/05 00:33:42;;;;;;;11.27;9.07;;;16.40;99.90;;;;;;6249901;28;20746;-68
2021/10/05 00:36:46;;;;;;;10.93;9.60;;;16.40;99.90;;;;;;6239466;28;20476;-68
2021/10/05 00:39:49;;;;;;;11.43;9.77;;;16.40;99.90;;;;;;6242892;28;20479;-68
2021/10/05 00:42:52;;;;;;;11.03;9.73;;;16.30;99.90;;;;;;6237056;28;20939;-69
2021/10/05 00:45:57;;;;;;;11.00;9.90;;;16.30;99.90;;;;;;6242454;28;20807;-69
2021/10/05 00:49:01;;;;;;;10.77;9.77;;;16.20;99.90;;;;;;6254075;28;20481;-69
2021/10/05 00:52:05;;;;;;;10.97;9.97;;;16.20;99.90;;;;;;6254053;28;20923;-69
2021/10/05 00:55:09;;;;;;;14.27;11.43;;;16.20;99.90;;;;;;6253501;28;20528;-69
2021/10/05 00:58:24;;;;;;;13.23;8.77;;;16.20;99.90;;;;;;6253679;28;20573;-69
2021/10/05 01:01:29;;;;;;;11.03;9.93;;;16.10;99.90;;;;;;6253258;28;20474;-69
2021/10/05 01:04:33;;;;;;;10.73;9.63;;;16.10;99.90;;;;;;6253473;28;20828;-69
2021/10/05 01:07:36;;;;;;;11.00;10.00;;;16.00;99.90;;;;;;6253658;28;20782;-70
2021/10/05 01:10:39;;;;;;;11.90;9.80;;;15.90;99.90;;;;;;6253424;28;20482;-69
2021/10/05 01:13:42;;;;;;;11.27;10.07;;;15.90;99.90;;;;;;6254809;28;20813;-69
2021/10/05 01:16:47;;;;;;;11.07;10.07;;;15.90;99.90;;;;;;6255709;28;20479;-69
2021/10/05 01:19:50;;;;;;;11.73;10.73;;;15.90;99.90;;;;;;6251906;28;20529;-69
2021/10/05 01:22:55;;;;;;;11.23;10.13;;;16.00;99.90;;;;;;6239102;28;20482;-70
2021/10/05 01:25:59;;;;;;;16.70;11.67;;;15.90;99.90;;;;;;6253216;28;20470;-70
2021/10/05 01:29:04;;;;;;;12.70;10.63;;;15.90;99.90;;;;;;6252683;28;20810;-69
2021/10/05 01:32:08;;;;;;;10.70;9.70;;;16.00;99.90;;;;;;6252554;28;20483;-70
2021/10/05 01:35:12;;;;;;;11.43;10.33;;;15.90;99.90;;;;;;6253144;28;20475;-69
2021/10/05 01:38:16;;;;;;;13.17;11.30;;;15.90;99.90;;;;;;6254802;28;20967;-69
2021/10/05 01:41:20;;;;;;;10.63;9.57;;;15.90;99.90;;;;;;6252419;28;20478;-67
2021/10/05 01:44:23;;;;;;;11.83;10.63;;;15.70;99.90;;;;;;6252134;28;20910;-67
2021/10/05 01:47:27;;;;;;;12.60;11.50;;;15.70;99.90;;;;;;6252262;28;20505;-67
2021/10/05 01:50:30;;;;;;;12.23;11.10;;;15.70;99.90;;;;;;6251957;28;20967;-67
2021/10/05 01:53:35;;;;;;;11.67;10.53;;;15.70;99.90;;;;;;6252653;28;20459;-67
2021/10/05 01:56:38;;;;;;;10.80;9.60;;;15.70;99.90;;;;;;6252400;28;20478;-67
2021/10/05 01:59:42;;;;;;;12.27;10.97;;;15.70;99.90;;;;;;6251990;28;20475;-67
2021/10/05 02:02:45;;;;;;;10.50;9.50;;;15.70;99.90;;;;;;6251313;28;20614;-67
2021/10/05 02:05:48;;;;;;;11.50;10.30;;;15.70;99.90;;;;;;6251156;28;20493;-67
2021/10/05 02:08:53;;;;;;;10.67;9.70;;;15.70;99.90;;;;;;6251593;28;20477;-67
2021/10/05 02:11:56;;;;;;;10.60;9.50;;;15.70;99.90;;;;;;6251559;28;20610;-67
2021/10/05 02:14:59;;;;;;;11.40;10.20;;;15.60;99.90;;;;;;6251532;28;20474;-67
2021/10/05 02:18:02;;;;;;;9.70;8.80;;;15.60;99.90;;;;;;6251231;28;20947;-67
2021/10/05 02:21:05;;;;;;;10.07;9.27;;;15.60;99.90;;;;;;6251446;28;20832;-67
2021/10/05 02:27:34;;;;;;;12.30;10.10;;;15.50;99.90;;;;;;6238552;28;20479;-67
2021/10/05 02:30:38;;;;;;;10.73;9.70;;;15.50;99.90;;;;;;6250994;28;20670;-67
2021/10/05 02:33:41;;;;;;;10.50;9.43;;;15.40;99.90;;;;;;6251362;28;20784;-67
2021/10/05 02:36:45;;;;;;;10.80;9.80;;;15.40;99.90;;;;;;6247962;28;20475;-67
2021/10/05 02:39:50;;;;;;;11.60;10.50;;;15.40;99.90;;;;;;6251036;28;20896;-67
2021/10/05 02:42:57;;;;;;;11.73;10.30;;;15.40;99.90;;;;;;6251511;28;20482;-67
2021/10/05 02:46:00;;;;;;;10.93;9.73;;;15.40;99.90;;;;;;6250585;28;20887;-67
2021/10/05 02:49:04;;;;;;;12.00;9.90;;;15.40;99.90;;;;;;6250713;28;20534;-67
2021/10/05 02:52:07;;;;;;;11.00;9.90;;;15.30;99.90;;;;;;6250267;28;20485;-67
2021/10/05 02:55:11;;;;;;;11.27;9.30;;;15.20;99.90;;;;;;6250033;28;20966;-67
2021/10/05 02:58:16;;;;;;;10.40;9.30;;;15.10;99.90;;;;;;6250670;28;20482;-67
2021/10/05 03:01:19;;;;;;;10.83;9.70;;;15.10;99.90;;;;;;6250345;28;20479;-67
2021/10/05 03:04:22;;;;;;;12.13;10.93;;;15.10;99.90;;;;;;6250624;28;20480;-67
2021/10/05 03:07:25;;;;;;;12.10;10.90;;;15.10;99.90;;;;;;6250294;28;20533;-67
2021/10/05 03:10:30;;;;;;;11.13;10.03;;;15.00;99.90;;;;;;6250675;28;20486;-67
2021/10/05 03:13:35;;;;;;;11.90;10.10;;;15.00;99.90;;;;;;6250755;28;20796;-67
2021/10/05 03:16:38;;;;;;;11.67;10.50;;;14.90;99.90;;;;;;6251778;28;20483;-67
2021/10/05 03:19:41;;;;;;;11.37;10.30;;;14.80;99.90;;;;;;6250986;28;20482;-67
2021/10/05 03:22:46;;;;;;;10.70;9.13;;;14.80;99.90;;;;;;6251307;28;20482;-67
2021/10/05 03:25:51;;;;;;;13.07;11.77;;;14.70;99.90;;;;;;6252353;28;20537;-67
2021/10/05 03:28:54;;;;;;;11.97;10.80;;;14.80;99.90;;;;;;6250970;28;20516;-67
2021/10/05 03:31:57;;;;;;;13.27;11.20;;;14.80;99.90;;;;;;6236835;28;20493;-67
2021/10/05 03:35:00;;;;;;;14.43;11.80;;;14.90;99.90;;;;;;6250088;28;20546;-67
2021/10/05 03:38:04;;;;;;;12.10;10.93;;;14.80;99.90;;;;;;6249999;28;20475;-67
2021/10/05 03:41:10;;;;;;;12.17;10.53;;;14.80;99.90;;;;;;6250186;28;20485;-67
2021/10/05 03:44:13;;;;;;;11.53;10.33;;;14.70;99.90;;;;;;6249279;28;20471;-67
2021/10/05 03:47:16;;;;;;;12.17;10.67;;;14.70;99.90;;;;;;6249787;28;20971;-67
2021/10/05 03:50:19;;;;;;;11.33;10.20;;;14.60;99.90;;;;;;6249654;28;20474;-67
2021/10/05 03:53:23;;;;;;;11.60;10.40;;;14.50;99.90;;;;;;6249791;28;20483;-67
2021/10/05 03:56:27;;;;;;;12.67;11.37;;;14.50;99.90;;;;;;6249962;28;20760;-67
2021/10/05 03:59:30;;;;;;;11.60;10.50;;;14.50;99.90;;;;;;6249692;28;20851;-67
2021/10/05 04:02:33;;;;;;;14.23;10.93;;;14.60;99.90;;;;;;6249605;28;20529;-67
2021/10/05 04:05:37;;;;;;;13.50;9.57;;;14.60;99.90;;;;;;6249539;28;20471;-67
2021/10/05 04:08:41;;;;;;;10.07;9.17;;;14.70;99.90;;;;;;6249840;28;20467;-67
2021/10/05 04:11:45;;;;;;;11.63;10.30;;;14.70;99.90;;;;;;6249742;28;20482;-67
2021/10/05 04:14:50;;;;;;;12.17;10.97;;;14.80;99.90;;;;;;6249663;28;20990;-67
2021/10/05 04:17:53;;;;;;;11.93;10.63;;;14.70;99.90;;;;;;6249577;28;20479;-67
2021/10/05 04:20:56;;;;;;;11.73;10.47;;;14.70;99.90;;;;;;6249487;28;20537;-65
2021/10/05 04:23:59;;;;;;;11.23;10.20;;;14.70;99.90;;;;;;6249633;28;20978;-66
2021/10/05 04:27:09;;;;;;;12.00;10.80;;;14.70;99.90;;;;;;6249698;28;20475;-67
2021/10/05 04:30:14;;;;;;;12.70;11.40;;;14.60;99.90;;;;;;6249411;28;20792;-67
2021/10/05 04:33:17;;;;;;;14.20;10.33;;;14.60;99.90;;;;;;6249396;28;20962;-65
2021/10/05 04:36:20;;;;;;;11.80;10.60;;;14.60;99.90;;;;;;6249444;28;20483;-66
2021/10/05 04:39:23;;;;;;;12.57;11.37;;;14.50;99.90;;;;;;6249775;28;20482;-66
2021/10/05 04:42:27;;;;;;;13.03;10.90;;;14.50;99.90;;;;;;6249377;28;20483;-66
2021/10/05 04:45:30;;;;;;;11.67;10.43;;;14.40;99.90;;;;;;6248976;28;20474;-66
2021/10/05 04:48:34;;;;;;;11.97;10.77;;;14.50;99.90;;;;;;6249310;28;21025;-66
2021/10/05 04:51:37;;;;;;;11.60;10.40;;;14.50;99.90;;;;;;6248965;28;20486;-67
2021/10/05 04:54:40;;;;;;;11.57;10.30;;;14.60;99.90;;;;;;6249699;28;20479;-67
2021/10/05 04:57:44;;;;;;;13.60;10.90;;;14.60;99.90;;;;;;6253879;28;20487;-66
2021/10/05 05:00:47;;;;;;;10.97;9.80;;;14.60;99.90;;;;;;6253202;28;20482;-66
2021/10/05 05:03:51;;;;;;;14.80;10.73;;;14.60;99.90;;;;;;6253636;28;20424;-67
2021/10/05 05:06:54;;;;;;;15.23;11.40;;;14.70;99.90;;;;;;6253902;28;20442;-67
2021/10/05 05:09:57;;;;;;;11.40;10.30;;;14.60;99.90;;;;;;6253841;28;20439;-67
2021/10/05 05:13:02;;;;;;;11.70;10.07;;;14.60;99.90;;;;;;6253452;28;20471;-67
2021/10/05 05:16:05;;;;;;;11.90;10.60;;;14.60;99.90;;;;;;6254524;28;20475;-67
2021/10/05 05:19:09;;;;;;;11.57;10.47;;;14.50;99.90;;;;;;6253169;28;20459;-67
2021/10/05 05:22:12;;;;;;;12.20;10.90;;;14.60;99.90;;;;;;6253127;28;20463;-66
2021/10/05 05:25:16;;;;;;;12.20;11.00;;;14.50;99.90;;;;;;6252902;28;20537;-66
2021/10/05 05:28:21;;;;;;;12.87;11.63;;;14.50;99.90;;;;;;6244971;28;20483;-66
2021/10/05 05:31:24;;;;;;;21.40;11.47;;;14.50;99.90;;;;;;6239244;28;20482;-67
2021/10/05 05:34:28;;;;;;;12.60;10.93;;;14.60;99.90;;;;;;6241214;28;20464;-66
2021/10/05 05:37:31;;;;;;;12.23;10.83;;;14.60;99.90;;;;;;6234217;28;20522;-66
2021/10/05 05:40:34;;;;;;;12.53;10.80;;;14.60;99.90;;;;;;6239399;28;20957;-66
2021/10/05 05:43:39;;;;;;;12.07;10.87;;;14.60;99.90;;;;;;6242403;28;21005;-64
2021/10/05 05:46:42;;;;;;;13.70;10.93;;;14.60;99.90;;;;;;6234754;28;20482;-64
2021/10/05 05:49:46;;;;;;;13.37;11.83;;;14.70;99.90;;;;;;6224626;28;20483;-65
2021/10/05 05:52:49;;;;;;;12.60;11.30;;;14.70;99.90;;;;;;6230507;28;20479;-65
2021/10/05 05:55:52;;;;;;;12.80;11.57;;;14.80;99.90;;;;;;6238003;28;21059;-65
2021/10/05 05:58:59;;;;;;;12.87;10.67;;;14.80;99.90;;;;;;6251818;28;20482;-65
2021/10/05 06:02:02;;;;;;;13.00;10.90;;;14.90;99.90;;;;;;6251801;28;20471;-65
2021/10/05 06:05:06;;;;;;;12.37;11.10;;;15.00;99.90;;;;;;6252344;28;20552;-65
2021/10/05 06:08:10;;;;;;;13.00;11.60;;;15.00;99.90;;;;;;6252320;28;20528;-65
2021/10/05 06:11:13;;;;;;;12.13;10.80;;;15.10;99.90;;;;;;6251627;28;20474;-65
2021/10/05 06:14:17;;;;;;;12.10;10.73;;;15.20;99.90;;;;;;6251987;28;20467;-65
2021/10/05 06:17:21;;;;;;;11.80;10.60;;;15.30;99.90;;;;;;6251393;28;20471;-65
2021/10/05 06:20:26;;;;;;;12.30;10.80;;;15.30;99.90;;;;;;6251534;28;20478;-65
2021/10/05 06:23:30;;;;;;;12.50;11.20;;;15.40;99.90;;;;;;6251918;28;20483;-65
2021/10/05 06:26:33;;;;;;;13.60;11.77;;;15.60;99.90;;;;;;6251422;28;20479;-65
2021/10/05 06:29:38;;;;;;;12.60;10.97;;;15.70;99.90;;;;;;6251534;28;20463;-65
2021/10/05 06:32:41;;;;;;;11.40;10.30;;;15.80;99.90;;;;;;6250877;28;20809;-65
2021/10/05 06:35:45;;;;;;;11.80;10.60;;;15.80;99.90;;;;;;6251396;28;20809;-66
2021/10/05 06:38:48;;;;;;;12.50;11.30;;;15.90;99.90;;;;;;6251105;28;20532;-66
2021/10/05 06:41:51;;;;;;;12.97;11.63;;;16.00;99.90;;;;;;6250617;28;20986;-66
2021/10/05 06:44:56;;;;;;;12.67;10.93;;;16.10;99.90;;;;;;6246246;28;20478;-66
2021/10/05 06:47:59;;;;;;;12.53;11.27;;;16.20;99.90;;;;;;6250538;28;20479;-66
2021/10/05 06:51:02;;;;;;;13.00;11.53;;;16.40;99.90;;;;;;6251053;28;20479;-66
2021/10/05 06:54:05;;;;;;;11.67;10.47;;;16.60;99.90;;;;;;6251031;28;20475;-66
2021/10/05 06:57:08;;;;;;;11.87;10.70;;;16.80;99.90;;;;;;6239712;28;20483;-66
2021/10/05 07:00:15;;;;;;;11.73;10.53;;;16.90;99.90;;;;;;6234957;28;20511;-66
2021/10/05 07:03:19;;;;;;;12.37;11.27;;;17.10;99.90;;;;;;6236355;28;20472;-65
2021/10/05 07:06:22;;;;;;;11.93;10.83;;;17.20;99.90;;;;;;6237853;28;20479;-65
2021/10/05 07:09:25;;;;;;;12.97;11.50;;;17.30;99.90;;;;;;6234893;28;20558;-65
2021/10/05 07:12:28;;;;;;;12.03;10.80;;;17.50;99.90;;;;;;6225534;28;20487;-66
2021/10/05 07:15:33;;;;;;;12.03;10.70;;;17.60;99.90;;;;;;6226406;28;20556;-66
2021/10/05 07:18:36;;;;;;;11.77;10.67;;;17.90;99.90;;;;;;6224820;28;20848;-65
2021/10/05 07:21:42;;;;;;;12.00;10.73;;;18.10;99.90;;;;;;6226119;28;20251;-66
2021/10/05 07:24:45;;;;;;;11.77;10.60;;;18.30;99.90;;;;;;6212548;28;20467;-66
2021/10/05 07:27:51;;;;;;;11.10;10.10;;;18.50;99.90;;;;;;6212837;28;20460;-62
2021/10/05 07:30:56;;;;;;;11.20;10.20;;;19.00;99.90;;;;;;6216534;28;20217;-67
2021/10/05 07:34:16;;;;;;;10.60;9.70;;;21.50;99.90;;;;;;6217530;28;20222;-66
2021/10/05 07:37:19;;;;;;;10.90;9.40;;;24.60;95.50;;;;;;6215221;28;20255;-64
2021/10/05 07:40:23;;;;;;;11.60;9.90;;;27.00;85.10;;;;;;6225218;28;20231;-68
2021/10/05 07:43:26;;;;;;;11.47;10.57;;;28.90;74.60;;;;;;6212235;28;20291;-67
2021/10/05 07:46:32;;;;;;;10.07;9.27;;;30.40;63.90;;;;;;6192557;28;20240;-66
2021/10/05 07:49:36;;;;;;;10.37;9.50;;;29.80;59.00;;;;;;6201240;28;20240;-67
2021/10/05 07:52:40;;;;;;;10.83;9.73;;;29.40;60.00;;;;;;6200954;28;20315;-65
2021/10/05 07:55:43;;;;;;;11.40;10.43;;;30.20;58.10;;;;;;6201001;28;20235;-66
2021/10/05 07:58:46;;;;;;;9.30;8.40;;;30.70;55.50;;;;;;6200312;28;20227;-67
2021/10/05 08:01:51;;;;;;;10.93;10.13;;;30.40;55.00;;;;;;6200634;28;20244;-65
2021/10/05 08:04:54;;;;;;;9.97;9.13;;;29.90;55.50;;;;;;6200421;28;20237;-65
2021/10/05 08:08:01;;;;;;;11.02;9.23;;;31.00;54.20;;;;;;6212838;28;20231;-66
2021/10/05 08:11:04;;;;;;;9.10;8.40;;;32.20;51.30;;;;;;6224975;28;20649;-66
2021/10/05 08:14:07;;;;;;;10.25;9.35;;;33.20;48.80;;;;;;6225365;28;20232;-65
2021/10/05 08:17:12;;;;;;;8.80;8.00;;;35.00;45.50;;;;;;6223612;28;20224;-65
2021/10/05 08:20:15;;;;;;;8.98;8.27;;;36.30;42.50;;;;;;6223042;28;20231;-64
2021/10/05 08:23:19;;;;;;;8.52;7.72;;;37.90;39.10;;;;;;6224269;28;20235;-64
2021/10/05 08:26:23;;;;;;;8.35;7.75;;;39.40;36.60;;;;;;6214172;28;20239;-64
2021/10/05 08:29:26;;;;;;;9.00;8.40;;;40.60;34.00;;;;;;6217085;28;20693;-64
2021/10/05 08:32:30;;;;;;;8.75;7.95;;;41.40;31.90;;;;;;6229305;28;20232;-64
2021/10/05 08:35:34;;;;;;;8.63;7.65;;;42.50;30.70;;;;;;6208177;28;20230;-64
2021/10/05 08:38:39;;;;;;;8.23;7.65;;;43.50;29.40;;;;;;6225564;28;20232;-63
2021/10/05 08:41:45;;;;;;;8.85;8.00;;;42.60;28.70;;;;;;6229397;28;20247;-63
2021/10/05 08:44:48;;;;;;;9.35;8.55;;;43.10;28.80;;;;;;6230355;28;20232;-64
2021/10/05 08:47:52;;;;;;;7.75;7.13;;;43.90;27.90;;;;;;6228724;28;20233;-64
2021/10/05 08:50:56;;;;;;;8.25;7.65;;;44.40;27.20;;;;;;6228681;28;20236;-64
2021/10/05 08:54:00;;;;;;;7.90;7.30;;;45.30;26.60;;;;;;6228639;28;20603;-64
2021/10/05 08:57:04;;;;;;;9.20;8.50;;;45.60;26.20;;;;;;6228858;28;20268;-64
2021/10/05 09:00:08;;;;;;;8.48;7.65;;;45.90;26.00;;;;;;6228634;28;20246;-63
2021/10/05 09:03:22;;;;;;;8.35;7.68;;;46.00;25.10;;;;;;6228287;28;20786;-64
2021/10/05 09:06:26;;;;;;;8.30;7.57;;;44.90;26.20;;;;;;6228929;28;20232;-64
2021/10/05 09:09:29;;;;;;;8.05;7.38;;;45.90;25.60;;;;;;6228144;28;20225;-63
2021/10/05 09:12:34;;;;;;;7.63;6.93;;;46.90;24.90;;;;;;6228314;28;20235;-64
2021/10/05 09:15:37;;;;;;;7.45;6.75;;;47.30;24.50;;;;;;6228384;28;20518;-63
2021/10/05 09:18:51;;;;;;;6.70;6.13;;;48.30;23.70;;;;;;6227960;28;20231;-63
2021/10/05 09:21:55;;;;;;;7.55;7.05;;;49.10;23.00;;;;;;6227622;28;20673;-64
2021/10/05 09:24:59;;;;;;;6.97;6.57;;;49.70;22.30;;;;;;6227882;28;20209;-64
2021/10/05 09:28:14;;;;;;;7.97;7.28;;;48.60;22.60;;;;;;6228682;28;20212;-64
2021/10/05 09:31:20;;;;;;;7.68;6.97;;;48.00;22.90;;;;;;6228282;28;20240;-64
2021/10/05 09:34:40;;;;;;;7.38;6.78;;;47.30;23.40;;;;;;6227636;28;20573;-63
2021/10/05 09:37:43;;;;;;;6.75;6.25;;;47.00;23.50;;;;;;6227865;28;20660;-64
2021/10/05 09:40:59;;;;;;;8.23;7.63;;;47.50;23.60;;;;;;6226822;28;20245;-63
2021/10/05 09:44:05;;;;;;;8.32;7.63;;;48.40;23.00;;;;;;6228395;28;20247;-65
2021/10/05 09:47:08;;;;;;;8.15;7.35;;;49.30;22.50;;;;;;6227779;28;20236;-64
2021/10/05 09:50:18;;;;;;;6.85;6.35;;;49.90;21.80;;;;;;6207197;28;20227;-63
2021/10/05 09:53:21;;;;;;;7.72;7.15;;;50.40;21.40;;;;;;6216733;28;20237;-63
2021/10/05 09:56:26;;;;;;;7.53;7.03;;;50.20;21.50;;;;;;6206528;28;20582;-64
2021/10/05 09:59:30;;;;;;;7.88;7.32;;;50.50;21.20;;;;;;6212439;28;20231;-64
2021/10/05 10:02:37;;;;;;;6.60;6.10;;;49.60;21.50;;;;;;6218999;28;20238;-65
2021/10/05 10:05:43;;;;;;;6.68;6.28;;;46.50;22.90;;;;;;6219261;28;20252;-65
2021/10/05 10:08:48;;;;;;;7.72;7.03;;;44.60;24.70;;;;;;6227242;28;20240;-64
2021/10/05 10:11:52;;;;;;;7.15;6.75;;;44.60;24.90;;;;;;6210812;28;20241;-64
2021/10/05 10:14:55;;;;;;;7.63;7.03;;;43.40;25.70;;;;;;6215538;28;20233;-64
2021/10/05 10:18:06;;;;;;;7.28;6.72;;;39.80;28.30;;;;;;6204373;28;20232;-63
2021/10/05 10:21:12;;;;;;;6.95;6.45;;;36.90;31.80;;;;;;6224452;28;20225;-64
2021/10/05 10:24:17;;;;;;;7.60;6.90;;;36.20;33.20;;;;;;6213822;28;20291;-64
2021/10/05 10:27:22;;;;;;;8.70;6.60;;;36.40;32.50;;;;;;6202685;28;20326;-64
2021/10/05 10:30:49;;;;;;;7.43;6.72;;;35.40;34.50;;;;;;6218048;28;20682;-64
2021/10/05 10:33:54;;;;;;;7.47;6.88;;;33.60;36.80;;;;;;6208650;28;20225;-63
2021/10/05 10:37:09;;;;;;;8.75;7.10;;;32.80;38.70;;;;;;6217222;28;20205;-64
2021/10/05 10:40:14;;;;;;;8.10;7.30;;;34.10;37.70;;;;;;6218559;28;20225;-64
2021/10/05 10:43:20;;;;;;;7.10;6.40;;;34.80;35.80;;;;;;6214744;28;20235;-64
2021/10/05 10:46:25;;;;;;;8.68;7.57;;;33.20;37.30;;;;;;6203359;28;20301;-64
2021/10/05 10:49:28;;;;;;;7.57;6.97;;;31.20;41.30;;;;;;6215652;28;20235;-64
2021/10/05 10:52:35;;;;;;;7.43;6.32;;;30.60;42.70;;;;;;6209405;28;20232;-63
2021/10/05 10:55:38;;;;;;;7.20;6.60;;;29.30;45.30;;;;;;6211410;28;20236;-64
2021/10/05 10:58:45;;;;;;;8.53;7.70;;;28.40;47.60;;;;;;6208223;28;20808;-63
2021/10/05 11:01:52;;;;;;;8.53;7.73;;;27.50;49.30;;;;;;6217224;28;20232;-63
2021/10/05 11:04:55;;;;;;;9.33;8.40;;;26.60;51.60;;;;;;6208962;28;20291;-63
2021/10/05 11:08:00;;;;;;;9.17;7.20;;;25.90;53.70;;;;;;6208287;28;20236;-63
2021/10/05 11:11:03;;;;;;;8.47;7.67;;;25.10;56.20;;;;;;6210948;28;20244;-63
2021/10/05 11:14:09;;;;;;;11.03;8.33;;;24.70;57.80;;;;;;6209439;28;20233;-64
2021/10/05 11:17:12;;;;;;;9.47;8.57;;;24.40;59.50;;;;;;6214596;28;20229;-64
2021/10/05 11:20:15;;;;;;;8.00;7.40;;;24.10;61.30;;;;;;6218169;28;20224;-64
2021/10/05 11:23:22;;;;;;;9.20;8.03;;;24.30;62.00;;;;;;6225312;28;20627;-65
2021/10/05 11:26:32;;;;;;;9.77;8.40;;;24.20;63.30;;;;;;6217458;28;20236;-64
2021/10/05 11:29:36;;;;;;;7.47;6.87;;;24.10;64.20;;;;;;6219452;28;20220;-64
2021/10/05 11:32:39;;;;;;;7.77;7.00;;;24.00;65.30;;;;;;6208664;28;20229;-64
2021/10/05 11:35:42;;;;;;;8.60;7.03;;;24.30;65.20;;;;;;6225419;28;20236;-64
2021/10/05 11:38:50;;;;;;;7.57;6.53;;;24.50;63.30;;;;;;6208913;28;20228;-64
2021/10/05 11:41:56;;;;;;;7.70;6.90;;;24.60;60.50;;;;;;6209127;28;20543;-64
2021/10/05 11:45:03;;;;;;;11.00;6.13;;;25.00;59.80;;;;;;6209677;28;20236;-64
2021/10/05 11:48:06;;;;;;;6.90;6.20;;;26.50;57.00;;;;;;6223642;28;20355;-64
2021/10/05 11:51:09;;;;;;;7.93;5.80;;;29.20;51.10;;;;;;6210022;28;20684;-64
2021/10/05 11:54:25;;;;;;;6.50;5.38;;;31.90;45.30;;;;;;6208784;28;20229;-67
2021/10/05 11:57:31;;;;;;;5.53;5.03;;;32.70;42.00;;;;;;6212437;28;20236;-64
2021/10/05 12:00:35;;;;;;;6.65;5.68;;;34.30;39.80;;;;;;6216326;28;20673;-68
2021/10/05 12:03:38;;;;;;;5.50;5.00;;;35.70;37.30;;;;;;6203554;28;20233;-66
2021/10/05 12:06:49;;;;;;;5.82;5.38;;;37.30;34.30;;;;;;6211667;28;20246;-70
2021/10/05 12:09:59;;;;;;;6.50;5.75;;;39.70;31.80;;;;;;6214636;28;20229;-69
2021/10/05 12:13:02;;;;;;;6.38;5.85;;;41.40;29.10;;;;;;6218468;28;20709;-70
2021/10/05 12:16:14;;;;;;;6.68;6.07;;;37.60;31.10;;;;;;6213416;28;20243;-65
2021/10/05 12:19:17;;;;;;;6.22;5.65;;;35.50;34.70;;;;;;6216119;28;20543;-68
2021/10/05 12:22:23;;;;;;;6.75;6.13;;;36.00;35.00;;;;;;6230043;28;20243;-67
2021/10/05 12:25:28;;;;;;;6.40;5.80;;;36.80;33.80;;;;;;6231333;28;20239;-64
2021/10/05 12:28:31;;;;;;;6.53;5.15;;;36.70;33.70;;;;;;6227883;28;20235;-65
2021/10/05 12:31:35;;;;;;;7.57;5.93;;;34.70;36.00;;;;;;6227889;28;20243;-65
2021/10/05 12:34:40;;;;;;;7.70;6.13;;;32.30;39.20;;;;;;6228164;28;20228;-66
2021/10/05 12:37:45;;;;;;;6.32;5.72;;;29.90;43.90;;;;;;6227989;28;20228;-66
2021/10/05 12:40:52;;;;;;;7.73;6.83;;;28.50;46.70;;;;;;6229422;28;20235;-66
2021/10/05 12:43:55;;;;;;;7.40;6.80;;;27.50;49.40;;;;;;6229314;28;20232;-67
2021/10/05 12:47:00;;;;;;;7.50;6.90;;;26.40;52.60;;;;;;6229944;28;20228;-67
2021/10/05 12:50:04;;;;;;;7.30;6.30;;;26.50;54.40;;;;;;6229851;28;20243;-67
2021/10/05 12:53:07;;;;;;;6.87;6.37;;;28.10;51.00;;;;;;6229631;28;20278;-69
2021/10/05 12:56:13;;;;;;;9.53;7.10;;;27.70;51.70;;;;;;6229488;28;20228;-63
2021/10/05 12:59:16;;;;;;;8.20;6.57;;;28.60;51.10;;;;;;6228871;28;20228;-70
2021/10/05 13:02:20;;;;;;;7.93;6.57;;;30.60;48.00;;;;;;6228578;28;20243;-67
2021/10/05 13:05:30;;;;;;;6.63;6.03;;;32.40;44.40;;;;;;6224786;28;20233;-66
2021/10/05 13:08:33;;;;;;;5.78;5.28;;;33.00;42.40;;;;;;6228904;28;20588;-65
2021/10/05 13:11:40;;;;;;;6.03;5.53;;;33.20;41.70;;;;;;6228745;28;20224;-66
2021/10/05 13:14:50;;;;;;;5.85;5.35;;;32.80;42.10;;;;;;6230679;28;20228;-68
2021/10/05 13:17:53;;;;;;;5.82;5.20;;;32.40;42.70;;;;;;6228327;28;20228;-68
2021/10/05 13:20:56;;;;;;;4.90;4.22;;;33.30;40.90;;;;;;6228527;28;20556;-68
2021/10/05 13:24:00;;;;;;;6.20;4.40;;;31.10;43.20;;;;;;6232381;28;20231;-65
2021/10/05 13:27:04;;;;;;;6.87;4.93;;;28.70;47.50;;;;;;6248004;28;20219;-70
2021/10/05 13:30:10;;;;;;;5.20;4.73;;;26.80;51.40;;;;;;6252731;28;20672;-67
2021/10/05 13:33:13;;;;;;;5.50;4.73;;;26.40;52.90;;;;;;6250984;28;20235;-70
2021/10/05 13:36:16;;;;;;;5.23;4.77;;;26.10;54.30;;;;;;6228090;28;20239;-69
2021/10/05 13:39:20;;;;;;;7.10;5.33;;;26.30;53.50;;;;;;6227747;28;20263;-67
2021/10/05 13:42:24;;;;;;;6.57;4.30;;;25.90;55.00;;;;;;6228495;28;20227;-68
2021/10/05 13:45:28;;;;;;;5.27;4.77;;;25.90;55.00;;;;;;6228729;28;20224;-70
2021/10/05 13:48:31;;;;;;;5.90;5.20;;;25.70;55.30;;;;;;6217293;28;20236;-69
2021/10/05 13:51:34;;;;;;;7.37;4.57;;;25.50;55.70;;;;;;6204935;28;20252;-70
2021/10/05 13:54:37;;;;;;;7.43;5.63;;;25.00;56.60;;;;;;6207453;28;20250;-66
2021/10/05 13:57:42;;;;;;;5.57;5.07;;;24.40;57.90;;;;;;6204778;28;20690;-70
2021/10/05 14:00:46;;;;;;;6.30;5.63;;;24.10;58.90;;;;;;6225829;28;20241;-66
2021/10/05 14:03:49;;;;;;;5.73;4.40;;;23.80;59.70;;;;;;6227585;28;20217;-68
2021/10/05 14:06:53;;;;;;;4.90;4.50;;;23.60;59.70;;;;;;6228219;28;20249;-66
2021/10/05 14:09:56;;;;;;;7.93;4.83;;;23.40;60.40;;;;;;6229998;28;20208;-67
2021/10/05 14:13:00;;;;;;;7.60;5.03;;;23.20;61.10;;;;;;6231726;28;20241;-69
2021/10/05 14:16:05;;;;;;;6.63;4.20;;;23.40;61.10;;;;;;6227309;28;20216;-70
2021/10/05 14:19:08;;;;;;;6.80;4.77;;;23.30;60.80;;;;;;6227457;28;20962;-69
2021/10/05 14:22:11;;;;;;;7.67;4.67;;;23.30;60.80;;;;;;6245079;28;20573;-67
2021/10/05 14:25:18;;;;;;;6.00;4.20;;;23.10;61.00;;;;;;6251587;28;20227;-68
2021/10/05 14:28:23;;;;;;;6.23;4.17;;;23.00;61.70;;;;;;6250981;28;20807;-68
2021/10/05 14:31:26;;;;;;;5.20;4.70;;;22.80;62.90;;;;;;6251063;28;20232;-68
2021/10/05 14:34:29;;;;;;;4.57;4.13;;;22.70;63.60;;;;;;6239623;28;20229;-68
2021/10/05 14:37:32;;;;;;;11.83;5.20;;;22.60;64.30;;;;;;6225994;28;20348;-67
2021/10/05 14:40:36;;;;;;;8.90;4.70;;;22.60;64.70;;;;;;6202450;28;20682;-68
2021/10/05 14:43:41;;;;;;;4.47;4.07;;;22.60;65.00;;;;;;6200915;28;20600;-68
2021/10/05 14:46:44;;;;;;;7.77;4.93;;;22.60;64.60;;;;;;6200606;28;20233;-68
2021/10/05 14:49:48;;;;;;;4.70;3.97;;;22.40;65.10;;;;;;6200717;28;20364;-68
2021/10/05 14:52:51;;;;;;;5.70;4.33;;;22.30;65.80;;;;;;6201373;28;20237;-67
2021/10/05 14:55:55;;;;;;;4.93;4.47;;;22.20;65.70;;;;;;6202211;28;20230;-67
2021/10/05 14:59:00;;;;;;;5.63;3.87;;;22.20;66.10;;;;;;6208738;28;20229;-67
2021/10/05 15:02:03;;;;;;;6.23;4.10;;;22.10;66.00;;;;;;6226292;28;20229;-67
2021/10/05 15:05:08;;;;;;;5.20;3.77;;;22.10;65.60;;;;;;6226840;28;20236;-69
2021/10/05 15:08:11;;;;;;;4.13;3.73;;;22.00;65.50;;;;;;6225425;28;20233;-68
2021/10/05 15:11:14;;;;;;;6.53;3.97;;;22.00;65.70;;;;;;6225703;28;20264;-68
2021/10/05 15:14:19;;;;;;;7.30;3.20;;;22.00;65.50;;;;;;6233910;28;20577;-68
2021/10/05 15:17:23;;;;;;;4.30;3.90;;;21.90;65.80;;;;;;6249976;28;20232;-68
2021/10/05 15:20:26;;;;;;;3.83;3.50;;;21.80;65.40;;;;;;6246309;28;20224;-68
2021/10/05 15:23:29;;;;;;;5.63;3.60;;;21.80;66.00;;;;;;6226039;28;20240;-67
2021/10/05 15:26:32;;;;;;;3.47;3.10;;;21.80;66.00;;;;;;6225491;28;20359;-67
2021/10/05 15:29:37;;;;;;;6.03;3.63;;;21.80;65.90;;;;;;6225401;28;20243;-67
2021/10/05 15:32:40;;;;;;;6.07;4.17;;;21.70;66.40;;;;;;6225531;28;20681;-67
2021/10/05 15:35:43;;;;;;;4.53;4.13;;;21.80;66.60;;;;;;6225481;28;20712;-68
2021/10/05 15:38:47;;;;;;;4.17;3.20;;;21.80;66.50;;;;;;6224792;28;20324;-67
2021/10/05 15:41:50;;;;;;;4.17;3.40;;;21.80;66.90;;;;;;6225381;28;20236;-67
2021/10/05 15:44:55;;;;;;;7.80;4.77;;;21.80;67.40;;;;;;6225433;28;20535;-68
2021/10/05 15:47:58;;;;;;;4.23;3.83;;;21.80;67.90;;;;;;6225212;28;20689;-68
2021/10/05 15:51:06;;;;;;;4.47;4.07;;;21.70;68.20;;;;;;6227600;28;20237;-68